createdAt,value
2017-11-14T00:02:23.052Z,17.55
2017-11-14T00:04:51.910Z,18.92
2017-11-14T00:07:20.756Z,17.33
2017-11-14T00:09:49.602Z,17.92
2017-11-14T00:12:18.460Z,16.92
2017-11-14T00:14:47.325Z,19.35
2017-11-14T00:17:16.176Z,17.65
2017-11-14T00:19:45.060Z,18.65
2017-11-14T00:22:13.564Z,18.10
2017-11-14T00:24:42.426Z,19.45
2017-11-14T00:27:11.309Z,19.02
2017-11-14T00:29:40.325Z,17.05
2017-11-14T00:32:09.174Z,17.95
2017-11-14T00:34:38.798Z,17.83
2017-11-14T00:37:07.672Z,18.40
2017-11-14T00:39:37.280Z,16.90
2017-11-14T00:42:06.910Z,19.02
2017-11-14T00:44:35.767Z,18.25
2017-11-14T00:47:04.608Z,17.83
2017-11-14T00:49:33.123Z,17.65
2017-11-14T00:52:01.975Z,17.55
2017-11-14T00:54:30.836Z,19.15
2017-11-14T00:57:00.465Z,16.60
2017-11-14T00:59:29.314Z,19.25
2017-11-14T01:01:58.166Z,19.25
2017-11-14T01:04:27.026Z,18.65
2017-11-14T01:06:56.648Z,20.50
2017-11-14T01:09:25.512Z,20.10
2017-11-14T01:11:55.454Z,17.83
2017-11-14T01:14:24.338Z,18.40
2017-11-14T01:16:53.226Z,17.08
2017-11-14T01:19:22.854Z,17.75
2017-11-14T01:21:51.702Z,17.95
2017-11-14T01:24:20.547Z,17.58
2017-11-14T01:26:49.415Z,18.30
2017-11-14T01:29:18.264Z,17.17
2017-11-14T01:31:47.109Z,18.60
2017-11-14T01:34:15.964Z,18.55
2017-11-14T01:36:45.582Z,18.27
2017-11-14T01:39:15.213Z,17.20
2017-11-14T01:41:44.065Z,19.00
2017-11-14T01:44:12.904Z,18.00
2017-11-14T01:46:41.776Z,19.23
2017-11-14T01:49:10.638Z,17.67
2017-11-14T01:51:39.486Z,20.00
2017-11-14T01:54:09.172Z,18.20
2017-11-14T01:56:38.011Z,18.58
2017-11-14T01:59:06.527Z,18.55
2017-11-14T02:01:36.180Z,18.12
2017-11-14T02:04:04.963Z,18.67
2017-11-14T02:06:33.494Z,19.30
2017-11-14T02:09:01.688Z,16.98
2017-11-14T02:11:30.975Z,19.08
2017-11-14T02:14:00.601Z,19.48
2017-11-14T02:16:30.219Z,17.35
2017-11-14T02:18:59.070Z,20.33
2017-11-14T02:21:27.937Z,18.12
2017-11-14T02:23:56.471Z,19.45
2017-11-14T02:26:25.934Z,18.73
2017-11-14T02:28:54.121Z,18.37
2017-11-14T02:31:22.996Z,19.25
2017-11-14T02:33:51.523Z,17.15
2017-11-14T02:36:20.845Z,19.40
2017-11-14T02:38:50.391Z,19.42
2017-11-14T02:41:18.935Z,18.45
2017-11-14T02:43:47.838Z,16.92
2017-11-14T02:46:16.409Z,18.65
2017-11-14T02:48:44.596Z,18.12
2017-11-14T02:51:12.797Z,19.65
2017-11-14T02:53:40.985Z,18.65
2017-11-14T02:56:09.852Z,18.60
2017-11-14T02:58:38.708Z,18.35
2017-11-14T03:01:08.311Z,17.55
2017-11-14T03:03:37.167Z,17.00
2017-11-14T03:06:05.692Z,17.62
2017-11-14T03:08:34.550Z,19.12
2017-11-14T03:11:03.688Z,15.80
2017-11-14T03:13:32.532Z,16.95
2017-11-14T03:16:01.408Z,17.80
2017-11-14T03:18:29.602Z,17.67
2017-11-14T03:20:59.364Z,17.80
2017-11-14T03:23:28.222Z,16.27
2017-11-14T03:25:57.844Z,18.42
2017-11-14T03:28:27.481Z,16.42
2017-11-14T03:30:56.353Z,17.30
2017-11-14T03:33:25.215Z,17.10
2017-11-14T03:35:54.076Z,17.45
2017-11-14T03:38:22.947Z,17.12
2017-11-14T03:40:51.824Z,17.05
2017-11-14T03:43:20.696Z,16.65
2017-11-14T03:45:50.437Z,18.08
2017-11-14T03:48:19.322Z,16.12
2017-11-14T03:50:47.516Z,17.08
2017-11-14T03:53:16.026Z,16.62
2017-11-14T03:55:44.887Z,18.65
2017-11-14T03:58:13.749Z,16.33
2017-11-14T04:00:43.372Z,17.65
2017-11-14T04:03:12.229Z,19.02
2017-11-14T04:05:41.849Z,17.35
2017-11-14T04:08:11.481Z,17.62
2017-11-14T04:10:40.171Z,19.10
2017-11-14T04:13:09.043Z,17.35
2017-11-14T04:15:38.672Z,16.90
2017-11-14T04:18:07.529Z,17.15
2017-11-14T04:20:36.365Z,16.27
2017-11-14T04:23:05.204Z,16.65
2017-11-14T04:25:34.823Z,18.50
2017-11-14T04:28:04.448Z,17.10
2017-11-14T04:30:33.325Z,18.52
2017-11-14T04:33:03.063Z,18.92
2017-11-14T04:35:31.907Z,17.37
2017-11-14T04:38:00.784Z,18.92
2017-11-14T04:40:29.637Z,17.12
2017-11-14T04:42:58.484Z,18.00
2017-11-14T04:45:27.343Z,18.33
2017-11-14T04:47:56.226Z,16.75
2017-11-14T04:50:25.068Z,17.02
2017-11-14T04:52:54.695Z,16.58
2017-11-14T04:55:23.569Z,18.23
2017-11-14T04:57:53.194Z,17.67
2017-11-14T05:00:22.868Z,17.05
2017-11-14T05:02:51.707Z,17.70
2017-11-14T05:05:20.553Z,18.75
2017-11-14T05:07:49.403Z,17.17
2017-11-14T05:10:18.324Z,17.52
2017-11-14T05:12:47.640Z,18.08
2017-11-14T05:15:16.500Z,19.00
2017-11-14T05:17:45.357Z,19.00
2017-11-14T05:20:13.885Z,18.02
2017-11-14T05:22:42.564Z,18.08
2017-11-14T05:25:11.427Z,16.83
2017-11-14T05:27:40.275Z,19.02
2017-11-14T05:30:09.122Z,17.08
2017-11-14T05:32:37.975Z,19.15
2017-11-14T05:35:07.620Z,16.30
2017-11-14T05:37:36.473Z,18.30
2017-11-14T05:40:06.080Z,18.02
2017-11-14T05:42:35.698Z,16.60
2017-11-14T05:45:05.338Z,18.25
2017-11-14T05:47:34.220Z,20.80
2017-11-14T05:50:03.064Z,19.55
2017-11-14T05:52:31.907Z,18.70
2017-11-14T05:55:00.750Z,19.20
2017-11-14T05:57:30.372Z,18.92
2017-11-14T06:00:00.024Z,17.80
2017-11-14T06:02:28.916Z,18.92
2017-11-14T06:04:57.778Z,16.87
2017-11-14T06:07:26.628Z,19.90
2017-11-14T06:09:55.483Z,18.67
2017-11-14T06:12:24.316Z,22.52
2017-11-14T06:14:53.183Z,20.73
2017-11-14T06:17:22.064Z,18.98
2017-11-14T06:19:50.921Z,18.65
2017-11-14T06:22:19.773Z,19.65
2017-11-14T06:24:48.721Z,18.87
2017-11-14T06:27:17.572Z,17.77
2017-11-14T06:29:47.191Z,20.00
2017-11-14T06:32:16.813Z,19.48
2017-11-14T06:34:45.664Z,18.35
2017-11-14T06:37:14.516Z,20.95
2017-11-14T06:39:43.497Z,19.67
2017-11-14T06:42:12.359Z,19.90
2017-11-14T06:44:41.995Z,19.17
2017-11-14T06:47:10.848Z,19.45
2017-11-14T06:49:39.705Z,19.40
2017-11-14T06:52:08.556Z,19.08
2017-11-14T06:54:40.507Z,18.10
2017-11-14T06:57:09.964Z,20.05
2017-11-14T06:59:38.827Z,18.70
2017-11-14T07:02:07.695Z,20.00
2017-11-14T07:04:37.307Z,18.35
2017-11-14T07:07:06.925Z,19.55
2017-11-14T07:09:35.800Z,19.90
2017-11-14T07:12:05.417Z,18.60
2017-11-14T07:14:35.061Z,19.50
2017-11-14T07:17:03.908Z,16.70
2017-11-14T07:19:33.546Z,20.25
2017-11-14T07:22:02.399Z,19.62
2017-11-14T07:24:30.746Z,18.73
2017-11-14T07:26:59.600Z,19.00
2017-11-14T07:29:28.464Z,17.52
2017-11-14T07:31:57.907Z,20.40
2017-11-14T07:34:26.760Z,18.62
2017-11-14T07:36:56.379Z,16.60
2017-11-14T07:39:25.997Z,16.75
2017-11-14T07:41:55.605Z,17.50
2017-11-14T07:44:24.458Z,17.20
2017-11-14T07:46:53.321Z,17.05
2017-11-14T07:49:22.214Z,19.45
2017-11-14T07:51:51.081Z,18.55
2017-11-14T07:54:19.940Z,18.30
2017-11-14T07:56:48.794Z,16.45
2017-11-14T07:59:17.652Z,16.52
2017-11-14T08:01:46.506Z,15.27
2017-11-14T08:04:15.364Z,15.52
2017-11-14T08:06:44.216Z,16.52
2017-11-14T08:09:13.851Z,14.35
2017-11-14T08:11:42.707Z,14.77
2017-11-14T08:14:12.335Z,14.77
2017-11-14T08:16:41.939Z,14.50
2017-11-14T08:19:10.793Z,15.52
2017-11-14T08:21:39.688Z,14.98
2017-11-14T08:24:09.371Z,15.10
2017-11-14T08:26:38.566Z,13.73
2017-11-14T08:29:07.451Z,15.98
2017-11-14T08:31:36.292Z,14.45
2017-11-14T08:34:05.929Z,14.27
2017-11-14T08:36:34.452Z,13.93
2017-11-14T08:39:02.988Z,12.65
2017-11-14T08:41:31.855Z,13.98
2017-11-14T08:44:01.487Z,12.63
2017-11-14T08:46:30.333Z,13.62
2017-11-14T08:48:59.184Z,12.02
2017-11-14T08:51:28.052Z,13.25
2017-11-14T08:53:57.684Z,12.77
2017-11-14T08:56:26.207Z,12.05
2017-11-14T08:58:54.718Z,12.77
2017-11-14T09:01:24.351Z,13.25
2017-11-14T09:03:53.210Z,11.48
2017-11-14T09:06:22.678Z,12.25
2017-11-14T09:08:51.592Z,13.13
2017-11-14T09:11:20.116Z,12.27
2017-11-14T09:13:48.968Z,12.15
2017-11-14T09:16:17.507Z,11.85
2017-11-14T09:18:46.364Z,12.65
2017-11-14T09:21:15.349Z,12.50
2017-11-14T09:23:43.876Z,11.95
2017-11-14T09:26:12.065Z,12.68
2017-11-14T09:28:40.591Z,10.95
2017-11-14T09:31:09.555Z,9.80
2017-11-14T09:33:38.094Z,9.93
2017-11-14T09:36:07.388Z,8.65
2017-11-14T09:38:36.701Z,8.80
2017-11-14T09:41:04.896Z,9.73
2017-11-14T09:43:33.083Z,9.02
2017-11-14T09:46:03.091Z,8.85
2017-11-14T09:48:31.608Z,9.60
2017-11-14T09:51:00.484Z,8.65
2017-11-14T09:53:28.680Z,10.07
2017-11-14T09:55:56.866Z,8.95
2017-11-14T09:58:25.402Z,8.73
2017-11-14T10:00:53.623Z,8.40
2017-11-14T10:03:21.823Z,7.93
2017-11-14T10:05:51.197Z,8.57
2017-11-14T10:08:20.148Z,8.63
2017-11-14T10:10:48.671Z,7.35
2017-11-14T10:13:16.865Z,8.68
2017-11-14T10:15:47.302Z,8.82
2017-11-14T10:18:15.808Z,8.07
2017-11-14T10:20:44.007Z,8.07
2017-11-14T10:23:12.182Z,8.55
2017-11-14T10:25:40.715Z,8.77
2017-11-14T10:28:09.675Z,9.98
2017-11-14T10:30:37.884Z,7.15
2017-11-14T10:33:06.862Z,8.45
2017-11-14T10:35:35.812Z,7.87
2017-11-14T10:38:05.167Z,8.70
2017-11-14T10:40:35.560Z,9.15
2017-11-14T10:43:04.075Z,8.32
2017-11-14T10:45:33.092Z,9.55
2017-11-14T10:48:01.618Z,7.80
2017-11-14T10:50:30.510Z,7.72
2017-11-14T10:52:59.352Z,8.45
2017-11-14T10:55:27.548Z,8.48
2017-11-14T10:57:56.406Z,8.38
2017-11-14T11:00:30.048Z,6.62
2017-11-14T11:02:58.232Z,6.68
2017-11-14T11:05:26.408Z,6.45
2017-11-14T11:07:54.598Z,7.37
2017-11-14T11:10:22.848Z,8.00
2017-11-14T11:12:51.376Z,6.90
2017-11-14T11:15:19.575Z,7.72
2017-11-14T11:17:48.533Z,7.85
2017-11-14T11:20:16.769Z,6.07
2017-11-14T11:22:44.967Z,5.87
2017-11-14T11:25:14.611Z,7.53
2017-11-14T11:27:43.174Z,6.68
2017-11-14T11:30:11.685Z,5.70
2017-11-14T11:32:40.199Z,5.97
2017-11-14T11:35:08.424Z,7.47
2017-11-14T11:37:36.958Z,6.90
2017-11-14T11:40:05.485Z,7.00
2017-11-14T11:42:33.687Z,6.12
2017-11-14T11:45:02.988Z,7.05
2017-11-14T11:47:33.866Z,6.47
2017-11-14T11:50:02.041Z,6.35
2017-11-14T11:52:30.247Z,6.70
2017-11-14T11:54:58.451Z,5.60
2017-11-14T11:57:27.896Z,6.32
2017-11-14T11:59:56.079Z,6.18
2017-11-14T12:02:24.273Z,5.97
2017-11-14T12:04:53.085Z,5.90
2017-11-14T12:07:22.020Z,7.22
2017-11-14T12:09:50.291Z,5.80
2017-11-14T12:12:18.804Z,5.87
2017-11-14T12:14:47.003Z,6.18
2017-11-14T12:17:15.571Z,6.62
2017-11-14T12:19:45.392Z,5.45
2017-11-14T12:22:13.576Z,5.50
2017-11-14T12:24:43.044Z,7.07
2017-11-14T12:27:11.246Z,5.90
2017-11-14T12:29:40.199Z,5.37
2017-11-14T12:32:08.710Z,4.97
2017-11-14T12:34:37.224Z,4.80
2017-11-14T12:37:06.035Z,5.70
2017-11-14T12:39:35.638Z,5.78
2017-11-14T12:42:05.220Z,6.22
2017-11-14T12:44:34.064Z,5.85
2017-11-14T12:47:02.900Z,5.28
2017-11-14T12:49:31.737Z,5.90
2017-11-14T12:52:00.581Z,6.45
2017-11-14T12:54:29.443Z,5.80
2017-11-14T12:56:58.278Z,6.28
2017-11-14T12:59:27.113Z,5.62
2017-11-14T13:01:55.932Z,5.50
2017-11-14T13:04:24.763Z,5.43
2017-11-14T13:06:54.396Z,5.50
2017-11-14T13:09:23.208Z,5.70
2017-11-14T13:11:52.029Z,4.97
2017-11-14T13:14:20.858Z,5.60
2017-11-14T13:16:49.662Z,4.47
2017-11-14T13:19:19.384Z,5.00
2017-11-14T13:21:48.200Z,4.45
2017-11-14T13:24:17.966Z,5.40
2017-11-14T13:26:46.779Z,4.78
2017-11-14T13:29:17.893Z,4.95
2017-11-14T13:31:46.413Z,5.78
2017-11-14T13:34:15.234Z,4.85
2017-11-14T13:36:44.073Z,4.57
2017-11-14T13:39:12.885Z,4.97
2017-11-14T13:41:42.555Z,5.15
2017-11-14T13:44:12.179Z,5.65
2017-11-14T13:46:40.991Z,5.75
2017-11-14T13:49:09.636Z,4.45
2017-11-14T13:51:39.216Z,5.03
2017-11-14T13:54:08.040Z,5.28
2017-11-14T13:56:36.860Z,5.32
2017-11-14T13:59:05.668Z,4.55
2017-11-14T14:01:34.482Z,4.85
2017-11-14T14:04:03.325Z,4.80
2017-11-14T14:06:32.160Z,4.75
2017-11-14T14:09:00.955Z,4.05
2017-11-14T14:11:29.776Z,4.18
2017-11-14T14:13:58.592Z,4.00
2017-11-14T14:16:27.398Z,4.55
2017-11-14T14:18:56.269Z,4.37
2017-11-14T14:21:25.080Z,4.80
2017-11-14T14:23:54.769Z,4.85
2017-11-14T14:26:23.592Z,5.07
2017-11-14T14:28:52.434Z,4.55
2017-11-14T14:31:21.240Z,4.40
2017-11-14T14:33:50.064Z,4.93
2017-11-14T14:36:18.900Z,4.85
2017-11-14T14:38:47.704Z,5.03
2017-11-14T14:41:16.508Z,4.95
2017-11-14T14:43:45.344Z,5.18
2017-11-14T14:46:14.799Z,4.57
2017-11-14T14:48:45.207Z,6.30
2017-11-14T14:51:14.022Z,5.15
2017-11-14T14:53:43.104Z,5.53
2017-11-14T14:56:11.961Z,4.65
2017-11-14T14:58:41.526Z,5.15
2017-11-14T15:01:10.326Z,4.65
2017-11-14T15:03:39.148Z,4.65
2017-11-14T15:06:08.720Z,4.22
2017-11-14T15:08:37.701Z,4.70
2017-11-14T15:11:06.499Z,4.25
2017-11-14T15:13:35.420Z,4.90
2017-11-14T15:16:04.248Z,4.47
2017-11-14T15:18:33.079Z,4.57
2017-11-14T15:21:02.868Z,4.43
2017-11-14T15:23:31.715Z,9.95
2017-11-14T15:26:01.324Z,6.03
2017-11-14T15:28:30.133Z,4.20
2017-11-14T15:31:00.313Z,6.85
2017-11-14T15:33:29.146Z,4.10
2017-11-14T15:35:57.969Z,4.80
2017-11-14T15:38:26.844Z,4.82
2017-11-14T15:40:55.664Z,5.50
2017-11-14T15:43:24.753Z,5.68
2017-11-14T15:45:53.691Z,5.15
2017-11-14T15:48:22.563Z,5.50
2017-11-14T15:50:52.218Z,9.32
2017-11-14T15:53:21.048Z,4.37
2017-11-14T15:55:59.700Z,5.40
2017-11-14T15:58:29.280Z,4.80
2017-11-14T16:00:58.116Z,5.60
2017-11-14T16:03:26.944Z,11.10
2017-11-14T16:05:55.902Z,8.07
2017-11-14T16:08:24.796Z,5.25
2017-11-14T16:10:54.177Z,6.10
2017-11-14T16:13:23.777Z,5.03
2017-11-14T16:15:53.606Z,4.93
2017-11-14T16:18:22.465Z,5.57
2017-11-14T16:20:51.316Z,5.90
2017-11-14T16:23:19.836Z,4.85
2017-11-14T16:25:48.663Z,5.62
2017-11-14T16:28:17.490Z,5.50
2017-11-14T16:30:46.324Z,5.70
2017-11-14T16:33:15.962Z,5.62
2017-11-14T16:35:44.789Z,4.80
2017-11-14T16:38:13.661Z,6.20
2017-11-14T16:40:42.525Z,5.25
2017-11-14T16:43:12.009Z,5.97
2017-11-14T16:45:41.609Z,6.03
2017-11-14T16:48:10.441Z,5.28
2017-11-14T16:50:39.267Z,6.22
2017-11-14T16:53:08.210Z,7.22
2017-11-14T16:55:37.068Z,7.68
2017-11-14T16:58:05.963Z,7.15
2017-11-14T17:00:35.686Z,11.85
2017-11-14T17:03:04.320Z,59.58
2017-11-14T17:05:33.228Z,7.30
2017-11-14T17:08:02.045Z,6.55
2017-11-14T17:10:31.023Z,7.15
2017-11-14T17:12:59.226Z,7.25
2017-11-14T17:15:28.055Z,6.95
2017-11-14T17:17:57.684Z,6.70
2017-11-14T17:20:26.514Z,6.03
2017-11-14T17:22:56.142Z,6.32
2017-11-14T17:25:24.947Z,6.15
2017-11-14T17:27:53.756Z,7.37
2017-11-14T17:30:23.431Z,7.12
2017-11-14T17:32:52.239Z,7.45
2017-11-14T17:35:21.049Z,35.50
2017-11-14T17:37:49.868Z,10.02
2017-11-14T17:40:18.683Z,7.10
2017-11-14T17:42:47.621Z,7.70
2017-11-14T17:45:16.452Z,18.90
2017-11-14T17:47:46.045Z,12.32
2017-11-14T17:50:14.884Z,10.80
2017-11-14T17:52:43.703Z,7.80
2017-11-14T17:55:12.521Z,6.95
2017-11-14T17:57:42.103Z,6.43
2017-11-14T18:00:10.915Z,7.35
2017-11-14T18:02:39.736Z,7.37
2017-11-14T18:05:08.558Z,7.90
2017-11-14T18:07:37.382Z,7.55
2017-11-14T18:10:06.209Z,7.12
2017-11-14T18:12:35.030Z,7.47
2017-11-14T18:15:03.863Z,6.85
2017-11-14T18:17:33.439Z,8.30
2017-11-14T18:20:02.263Z,6.82
2017-11-14T18:22:32.000Z,6.57
2017-11-14T18:25:01.704Z,7.28
2017-11-14T18:27:30.532Z,7.25
2017-11-14T18:29:59.629Z,7.12
2017-11-14T18:32:28.465Z,7.95
2017-11-14T18:34:58.068Z,7.40
2017-11-14T18:37:27.661Z,7.45
2017-11-14T18:39:56.486Z,8.20
2017-11-14T18:42:25.305Z,7.82
2017-11-14T18:44:55.018Z,10.70
2017-11-14T18:47:23.857Z,9.23
2017-11-14T18:49:53.168Z,8.80
2017-11-14T18:52:22.752Z,8.05
2017-11-14T18:54:51.578Z,8.35
2017-11-14T18:57:21.160Z,8.52
2017-11-14T18:59:50.928Z,8.25
2017-11-14T19:02:19.749Z,7.85
2017-11-14T19:04:48.576Z,7.25
2017-11-14T19:07:17.395Z,7.22
2017-11-14T19:09:46.204Z,6.95
2017-11-14T19:12:15.011Z,7.25
2017-11-14T19:14:43.820Z,6.25
2017-11-14T19:17:13.401Z,7.65
2017-11-14T19:19:42.897Z,7.43
2017-11-14T19:22:11.712Z,8.40
2017-11-14T19:24:41.049Z,6.85
2017-11-14T19:27:09.876Z,6.85
2017-11-14T19:29:38.798Z,6.87
2017-11-14T19:32:07.609Z,7.28
2017-11-14T19:34:37.197Z,7.32
2017-11-14T19:37:06.015Z,5.85
2017-11-14T19:39:34.832Z,7.43
2017-11-14T19:42:03.658Z,6.87
2017-11-14T19:44:32.472Z,7.18
2017-11-14T19:47:02.676Z,6.25
2017-11-14T19:49:31.492Z,6.90
2017-11-14T19:52:01.079Z,7.30
2017-11-14T19:54:29.889Z,7.07
2017-11-14T19:56:59.461Z,6.78
2017-11-14T19:59:28.275Z,6.55
2017-11-14T20:01:57.855Z,7.15
2017-11-14T20:04:26.672Z,7.75
2017-11-14T20:06:56.248Z,5.97
2017-11-14T20:09:25.066Z,7.43
2017-11-14T20:11:54.659Z,6.95
2017-11-14T20:14:23.500Z,8.35
2017-11-14T20:16:52.156Z,7.37
2017-11-14T20:19:21.563Z,7.78
2017-11-14T20:21:51.176Z,6.68
2017-11-14T20:24:20.768Z,6.70
2017-11-14T20:26:50.349Z,7.20
2017-11-14T20:29:19.164Z,6.30
2017-11-14T20:31:48.798Z,7.25
2017-11-14T20:34:17.623Z,6.93
2017-11-14T20:36:47.208Z,7.07
2017-11-14T20:39:16.022Z,7.62
2017-11-14T20:44:43.986Z,7.50
2017-11-14T20:47:12.806Z,7.20
2017-11-14T20:49:41.627Z,7.57
2017-11-14T20:52:10.476Z,8.38
2017-11-14T20:54:39.508Z,8.75
2017-11-14T20:57:08.340Z,7.75
2017-11-14T20:59:37.168Z,8.05
2017-11-14T21:02:05.987Z,7.62
2017-11-14T21:04:34.813Z,7.80
2017-11-14T21:07:04.300Z,7.25
2017-11-14T21:09:33.133Z,8.05
2017-11-14T21:12:01.970Z,8.88
2017-11-14T21:14:31.568Z,7.78
2017-11-14T21:17:00.401Z,9.00
2017-11-14T21:19:29.216Z,8.20
2017-11-14T21:21:58.024Z,8.25
2017-11-14T21:24:27.609Z,8.45
2017-11-14T21:26:56.460Z,8.23
2017-11-14T21:29:25.267Z,8.40
2017-11-14T21:31:54.088Z,9.95
2017-11-14T21:34:22.898Z,9.60
2017-11-14T21:36:51.540Z,7.35
2017-11-14T21:39:20.172Z,8.68
2017-11-14T21:41:48.980Z,8.40
2017-11-14T21:44:18.552Z,17.40
2017-11-14T21:46:47.387Z,8.30
2017-11-14T21:49:16.958Z,7.90
2017-11-14T21:51:45.799Z,8.43
2017-11-14T21:54:14.608Z,8.05
2017-11-14T21:56:43.412Z,8.25
2017-11-14T21:59:12.225Z,8.65
2017-11-14T22:01:41.033Z,8.30
2017-11-14T22:04:10.651Z,8.00
2017-11-14T22:06:40.226Z,9.20
2017-11-14T22:09:09.050Z,8.63
2017-11-14T22:11:38.642Z,7.60
2017-11-14T22:14:08.232Z,9.02
2017-11-14T22:16:37.050Z,7.60
2017-11-14T22:19:06.640Z,7.80
2017-11-14T22:21:35.474Z,8.18
2017-11-14T22:24:04.009Z,7.95
2017-11-14T22:26:32.663Z,9.43
2017-11-14T22:29:01.304Z,8.98
2017-11-14T22:31:30.579Z,8.05
2017-11-14T22:33:59.216Z,8.48
2017-11-14T22:36:27.861Z,7.18
2017-11-14T22:38:56.670Z,8.20
2017-11-14T22:41:26.077Z,7.03
2017-11-14T22:43:55.515Z,8.25
2017-11-14T22:46:24.345Z,7.03
2017-11-14T22:48:53.937Z,8.60
2017-11-14T22:51:22.755Z,8.55
2017-11-14T22:53:52.928Z,7.12
2017-11-14T22:56:23.120Z,7.85
2017-11-14T22:58:52.743Z,6.70
2017-11-14T23:01:21.559Z,8.10
2017-11-14T23:03:50.899Z,7.93
2017-11-14T23:06:19.723Z,7.80
2017-11-14T23:08:48.543Z,8.02
2017-11-14T23:11:17.356Z,7.47
2017-11-14T23:13:46.168Z,7.53
2017-11-14T23:16:15.747Z,8.05
2017-11-14T23:18:44.560Z,7.90
2017-11-14T23:21:14.136Z,6.75
2017-11-14T23:23:42.955Z,8.05
2017-11-14T23:26:12.608Z,7.50
2017-11-14T23:28:41.423Z,7.50
2017-11-14T23:31:10.309Z,7.82
2017-11-14T23:33:39.128Z,9.05
2017-11-14T23:36:08.716Z,8.65
2017-11-14T23:38:37.530Z,7.82
2017-11-14T23:41:06.353Z,7.50
2017-11-14T23:43:35.181Z,8.60
2017-11-14T23:46:03.991Z,8.65
2017-11-14T23:48:32.822Z,7.90
2017-11-14T23:51:01.628Z,8.68
2017-11-14T23:53:30.502Z,8.93
2017-11-14T23:55:59.316Z,7.40
2017-11-14T23:58:28.132Z,8.85
